createdAt,value
2022-10-18T00:00:57.327Z,79.19
2022-10-18T00:03:24.662Z,79.58
2022-10-18T00:05:52.556Z,79.41
2022-10-18T00:08:20.482Z,79.03
2022-10-18T00:10:48.455Z,78.72
2022-10-18T00:13:15.630Z,79.69
2022-10-18T00:15:54.941Z,80.06
2022-10-18T00:18:22.210Z,79.41
2022-10-18T00:21:03.981Z,79.12
2022-10-18T00:23:32.686Z,79.28
2022-10-18T00:26:04.160Z,79.49
2022-10-18T00:28:32.973Z,79.37
2022-10-18T00:31:25.041Z,79.76
2022-10-18T00:33:55.797Z,79.71
2022-10-18T00:36:23.352Z,79.90
2022-10-18T00:38:50.658Z,79.99
2022-10-18T00:41:20.630Z,80.03
2022-10-18T00:43:52.710Z,79.83
2022-10-18T00:46:19.850Z,80.20
2022-10-18T00:48:47.185Z,79.36
2022-10-18T00:51:15.599Z,79.66
2022-10-18T00:53:42.866Z,79.67
2022-10-18T00:56:10.028Z,79.95
2022-10-18T00:58:37.131Z,80.08
2022-10-18T01:01:04.367Z,80.07
2022-10-18T01:03:31.902Z,79.92
2022-10-18T01:05:59.118Z,79.82
2022-10-18T01:08:40.380Z,80.17
2022-10-18T01:11:18.835Z,80.45
2022-10-18T01:14:02.970Z,80.93
2022-10-18T01:16:41.546Z,81.05
2022-10-18T01:19:11.476Z,80.82
2022-10-18T01:21:55.427Z,80.80
2022-10-18T01:24:40.800Z,80.92
2022-10-18T01:27:19.125Z,80.50
2022-10-18T01:29:58.262Z,80.54
2022-10-18T01:32:29.006Z,80.71
2022-10-18T01:34:59.441Z,80.95
2022-10-18T01:37:28.422Z,80.82
2022-10-18T01:39:57.327Z,80.40
2022-10-18T01:42:24.848Z,81.01
2022-10-18T01:44:52.907Z,80.96
2022-10-18T01:47:20.495Z,80.53
2022-10-18T01:49:47.675Z,80.19
2022-10-18T01:52:16.608Z,80.19
2022-10-18T01:54:48.465Z,79.87
2022-10-18T01:57:20.137Z,80.50
2022-10-18T01:59:51.684Z,80.96
2022-10-18T02:02:39.115Z,80.57
2022-10-18T02:05:22.359Z,80.71
2022-10-18T02:08:00.183Z,80.81
2022-10-18T02:10:42.112Z,80.46
2022-10-18T02:13:11.836Z,80.59
2022-10-18T02:15:41.924Z,80.82
2022-10-18T02:18:13.140Z,80.88
2022-10-18T02:20:40.257Z,80.83
2022-10-18T02:23:08.645Z,81.26
2022-10-18T02:25:36.218Z,80.96
2022-10-18T02:28:04.002Z,80.83
2022-10-18T02:30:57.567Z,80.36
2022-10-18T02:33:35.856Z,81.01
2022-10-18T02:36:08.988Z,80.44
2022-10-18T02:38:36.804Z,80.36
2022-10-18T02:41:03.900Z,80.64
2022-10-18T02:43:31.095Z,80.55
2022-10-18T02:45:58.460Z,80.33
2022-10-18T02:48:25.779Z,80.48
2022-10-18T02:50:52.866Z,80.97
2022-10-18T02:53:20.165Z,80.81
2022-10-18T02:55:47.280Z,80.89
2022-10-18T02:58:14.774Z,80.96
2022-10-18T03:00:41.903Z,81.58
2022-10-18T03:03:08.979Z,81.33
2022-10-18T03:05:36.090Z,80.58
2022-10-18T03:08:03.335Z,80.57
2022-10-18T03:10:30.505Z,80.89
2022-10-18T03:12:57.694Z,81.32
2022-10-18T03:15:25.050Z,81.40
2022-10-18T03:17:52.204Z,80.92
2022-10-18T03:20:19.835Z,81.29
2022-10-18T03:22:47.226Z,81.60
2022-10-18T03:25:14.400Z,81.53
2022-10-18T03:27:41.770Z,80.86
2022-10-18T03:30:11.672Z,80.68
2022-10-18T03:32:39.089Z,80.81
2022-10-18T03:35:07.462Z,81.13
2022-10-18T03:37:34.828Z,81.52
2022-10-18T03:40:02.924Z,81.47
2022-10-18T03:42:30.386Z,81.28
2022-10-18T03:44:57.699Z,81.35
2022-10-18T03:47:24.892Z,81.21
2022-10-18T03:49:54.670Z,81.44
2022-10-18T03:52:24.301Z,81.72
2022-10-18T03:54:51.437Z,81.77
2022-10-18T03:57:18.644Z,81.50
2022-10-18T03:59:45.842Z,81.85
2022-10-18T04:02:13.008Z,81.23
2022-10-18T04:04:40.120Z,81.46
2022-10-18T04:07:07.243Z,81.17
2022-10-18T04:09:34.548Z,81.50
2022-10-18T04:12:01.617Z,81.98
2022-10-18T04:14:29.227Z,81.62
2022-10-18T04:16:56.562Z,81.56
2022-10-18T04:19:23.809Z,81.73
2022-10-18T04:21:50.929Z,81.95
2022-10-18T04:24:18.105Z,81.97
2022-10-18T04:26:46.332Z,81.84
2022-10-18T04:29:13.771Z,81.79
2022-10-18T04:31:40.848Z,81.70
2022-10-18T04:34:08.098Z,81.29
2022-10-18T04:36:35.317Z,81.37
2022-10-18T04:39:02.480Z,81.58
2022-10-18T04:41:29.701Z,82.11
2022-10-18T04:43:56.774Z,82.16
2022-10-18T04:46:23.961Z,81.74
2022-10-18T04:48:51.109Z,81.43
2022-10-18T04:51:18.358Z,81.28
2022-10-18T04:53:45.553Z,81.21
2022-10-18T04:56:12.737Z,81.32
2022-10-18T04:58:39.915Z,80.99
2022-10-18T05:01:07.766Z,81.11
2022-10-18T05:03:35.419Z,81.09
2022-10-18T05:06:03.440Z,80.82
2022-10-18T05:08:32.057Z,81.55
2022-10-18T05:11:00.038Z,81.32
2022-10-18T05:13:27.507Z,81.14
2022-10-18T05:15:54.645Z,81.43
2022-10-18T05:18:21.815Z,81.13
2022-10-18T05:20:48.971Z,81.80
2022-10-18T05:23:16.164Z,81.46
2022-10-18T05:25:43.848Z,81.72
2022-10-18T05:28:34.124Z,81.81
2022-10-18T05:31:02.829Z,82.09
2022-10-18T05:33:30.359Z,82.35
2022-10-18T05:35:57.734Z,82.33
2022-10-18T05:38:25.791Z,82.48
2022-10-18T05:40:53.063Z,82.04
2022-10-18T05:43:20.222Z,81.80
2022-10-18T05:45:48.996Z,82.32
2022-10-18T05:48:16.444Z,82.20
2022-10-18T05:50:44.155Z,82.20
2022-10-18T05:53:24.743Z,81.83
2022-10-18T05:56:02.517Z,82.58
2022-10-18T05:58:29.786Z,82.71
2022-10-18T06:01:01.023Z,82.86
2022-10-18T06:03:28.464Z,82.48
2022-10-18T06:06:06.015Z,82.72
2022-10-18T06:08:34.068Z,82.65
2022-10-18T06:11:15.612Z,82.77
2022-10-18T06:13:44.380Z,82.56
2022-10-18T06:16:12.383Z,82.55
2022-10-18T06:18:40.494Z,82.02
2022-10-18T06:21:08.584Z,81.76
2022-10-18T06:23:35.911Z,81.81
2022-10-18T06:26:06.739Z,81.88
2022-10-18T06:28:35.457Z,81.83
2022-10-18T06:31:03.260Z,81.61
2022-10-18T06:33:31.165Z,81.74
2022-10-18T06:36:00.160Z,81.63
2022-10-18T06:38:28.736Z,81.49
2022-10-18T06:40:56.943Z,81.75
2022-10-18T06:43:24.383Z,81.70
2022-10-18T06:45:52.399Z,81.58
2022-10-18T06:50:57.106Z,80.89
2022-10-18T06:53:25.744Z,80.90
2022-10-18T06:55:53.691Z,81.45
2022-10-18T06:58:21.039Z,81.40
2022-10-18T07:00:48.278Z,81.41
2022-10-18T07:03:15.472Z,81.50
2022-10-18T07:05:42.625Z,81.24
2022-10-18T07:08:09.795Z,80.97
2022-10-18T07:10:37.050Z,81.60
2022-10-18T07:13:30.454Z,81.36
2022-10-18T07:16:20.803Z,81.57
2022-10-18T07:18:49.918Z,81.83
2022-10-18T07:21:21.920Z,81.56
2022-10-18T07:23:49.956Z,81.63
2022-10-18T07:26:29.203Z,81.37
2022-10-18T07:28:59.083Z,81.35
2022-10-18T07:31:26.505Z,81.41
2022-10-18T07:33:53.675Z,81.46
2022-10-18T07:36:22.232Z,81.44
2022-10-18T07:38:50.040Z,82.25
2022-10-18T07:41:17.247Z,82.23
2022-10-18T07:43:47.202Z,82.45
2022-10-18T07:46:15.523Z,82.51
2022-10-18T07:48:42.867Z,82.82
2022-10-18T07:51:10.557Z,82.75
2022-10-18T07:53:38.091Z,82.93
2022-10-18T07:56:15.825Z,83.13
2022-10-18T07:58:44.307Z,82.60
2022-10-18T08:01:12.393Z,82.58
2022-10-18T08:03:40.540Z,82.77
2022-10-18T08:06:09.601Z,82.47
2022-10-18T08:08:38.188Z,82.61
2022-10-18T08:11:08.888Z,81.66
2022-10-18T08:13:36.286Z,81.19
2022-10-18T08:16:06.144Z,81.13
2022-10-18T08:18:33.335Z,81.27
2022-10-18T08:21:01.312Z,81.22
2022-10-18T08:23:28.615Z,80.62
2022-10-18T08:25:55.759Z,80.35
2022-10-18T08:28:23.050Z,80.22
2022-10-18T08:30:50.162Z,79.87
2022-10-18T08:33:17.410Z,79.57
2022-10-18T08:35:55.025Z,79.54
2022-10-18T08:38:22.164Z,79.60
2022-10-18T08:40:49.773Z,79.46
2022-10-18T08:43:26.408Z,79.19
2022-10-18T08:45:54.380Z,79.25
2022-10-18T08:48:30.675Z,79.20
2022-10-18T08:50:58.498Z,79.26
2022-10-18T08:53:51.875Z,79.23
2022-10-18T08:56:24.096Z,79.07
2022-10-18T08:58:51.315Z,78.69
2022-10-18T09:01:27.478Z,78.50
2022-10-18T09:04:10.290Z,78.19
2022-10-18T09:06:52.646Z,78.74
2022-10-18T09:09:39.012Z,78.65
2022-10-18T09:12:19.075Z,78.69
2022-10-18T09:15:07.803Z,78.21
2022-10-18T09:17:48.342Z,77.83
2022-10-18T09:20:22.975Z,77.99
2022-10-18T09:23:05.256Z,77.38
2022-10-18T09:25:37.421Z,77.29
2022-10-18T09:28:24.561Z,77.13
2022-10-18T09:31:05.642Z,77.13
2022-10-18T09:33:43.443Z,77.08
2022-10-18T09:36:21.205Z,77.28
2022-10-18T09:38:50.922Z,76.41
2022-10-18T09:41:39.543Z,76.19
2022-10-18T09:44:10.869Z,76.02
2022-10-18T09:46:45.565Z,74.57
2022-10-18T09:49:37.513Z,74.80
2022-10-18T09:52:09.236Z,74.51
2022-10-18T09:54:42.302Z,74.11
2022-10-18T09:57:12.093Z,73.70
2022-10-18T09:59:50.355Z,73.24
2022-10-18T10:02:22.898Z,73.27
2022-10-18T10:04:51.112Z,73.53
2022-10-18T10:07:32.546Z,74.30
2022-10-18T10:10:09.019Z,74.85
2022-10-18T10:12:38.228Z,74.99
2022-10-18T10:15:23.202Z,75.32
2022-10-18T10:17:57.439Z,75.34
2022-10-18T10:20:34.239Z,75.11
2022-10-18T10:23:07.853Z,75.93
2022-10-18T10:25:38.244Z,76.71
2022-10-18T10:28:12.031Z,77.18
2022-10-18T10:30:39.220Z,77.58
2022-10-18T10:33:06.959Z,78.05
2022-10-18T10:35:52.973Z,78.17
2022-10-18T10:38:28.491Z,77.98
2022-10-18T10:40:56.123Z,78.12
2022-10-18T10:43:42.794Z,78.58
2022-10-18T10:46:12.366Z,79.25
2022-10-18T10:48:46.093Z,79.76
2022-10-18T10:51:14.286Z,80.58
2022-10-18T10:54:22.104Z,81.60
2022-10-18T10:57:00.463Z,81.63
2022-10-18T10:59:31.435Z,81.99
2022-10-18T11:02:14.094Z,82.67
2022-10-18T11:04:42.168Z,82.43
2022-10-18T11:07:09.231Z,82.78
2022-10-18T11:09:43.669Z,83.24
2022-10-18T11:12:16.560Z,83.18
2022-10-18T11:14:47.159Z,83.34
2022-10-18T11:17:26.659Z,83.88
2022-10-18T11:20:07.133Z,83.68
2022-10-18T11:22:38.721Z,83.86
2022-10-18T11:25:06.056Z,84.02
2022-10-18T11:27:40.590Z,83.76
2022-10-18T11:30:27.318Z,84.13
2022-10-18T11:33:10.655Z,83.87
2022-10-18T11:35:49.817Z,84.07
2022-10-18T11:38:24.680Z,83.80
2022-10-18T11:41:06.761Z,84.14
2022-10-18T11:44:02.716Z,84.37
2022-10-18T11:46:50.465Z,84.29
2022-10-18T11:49:35.936Z,84.27
2022-10-18T11:52:24.261Z,84.46
2022-10-18T11:55:03.206Z,84.35
2022-10-18T11:57:55.796Z,84.09
2022-10-18T12:00:29.196Z,84.59
2022-10-18T12:03:12.331Z,85.00
2022-10-18T12:05:41.427Z,84.64
2022-10-18T12:08:11.077Z,85.27
2022-10-18T12:10:46.134Z,85.57
2022-10-18T12:13:39.562Z,85.28
2022-10-18T12:16:08.183Z,85.11
2022-10-18T12:18:36.896Z,85.42
2022-10-18T12:21:05.471Z,84.88
2022-10-18T12:23:35.033Z,85.11
2022-10-18T12:26:07.459Z,85.60
2022-10-18T12:28:41.562Z,85.48
2022-10-18T12:31:15.735Z,85.53
2022-10-18T12:33:46.758Z,85.82
2022-10-18T12:36:13.878Z,85.93
2022-10-18T12:38:42.885Z,86.23
2022-10-18T12:41:20.636Z,86.31
2022-10-18T12:43:53.386Z,86.65
2022-10-18T12:46:21.312Z,86.73
2022-10-18T12:49:04.057Z,87.32
2022-10-18T12:51:31.585Z,86.95
2022-10-18T12:54:01.670Z,87.17
2022-10-18T12:56:28.732Z,86.89
2022-10-18T12:59:18.758Z,87.46
2022-10-18T13:01:54.769Z,87.72
2022-10-18T13:04:28.107Z,88.05
2022-10-18T13:06:58.160Z,87.62
2022-10-18T13:09:37.248Z,87.90
2022-10-18T13:12:10.444Z,87.84
2022-10-18T13:15:25.607Z,87.83
2022-10-18T13:18:01.518Z,88.11
2022-10-18T13:20:38.464Z,87.79
2022-10-18T13:23:20.918Z,87.65
2022-10-18T13:25:56.819Z,87.98
2022-10-18T13:28:31.280Z,87.93
2022-10-18T13:31:22.380Z,87.46
2022-10-18T13:33:49.765Z,87.49
2022-10-18T13:36:22.499Z,88.54
2022-10-18T13:38:53.655Z,88.40
2022-10-18T13:44:02.400Z,88.61
2022-10-18T13:46:32.871Z,88.02
2022-10-18T13:49:29.184Z,88.21
2022-10-18T13:52:14.838Z,87.67
2022-10-18T13:55:00.488Z,87.70
2022-10-18T13:57:49.009Z,87.63
2022-10-18T14:00:26.378Z,87.26
2022-10-18T14:03:31.712Z,87.54
2022-10-18T14:06:24.109Z,87.41
2022-10-18T14:09:25.414Z,87.34
2022-10-18T14:12:23.078Z,87.41
2022-10-18T14:14:55.671Z,87.44
2022-10-18T14:17:30.461Z,87.42
2022-10-18T14:20:27.233Z,87.69
2022-10-18T14:23:12.932Z,87.40
2022-10-18T14:25:40.253Z,87.65
2022-10-18T14:28:17.321Z,87.32
2022-10-18T14:30:58.995Z,87.93
2022-10-18T14:33:29.229Z,87.60
2022-10-18T14:36:03.103Z,87.03
2022-10-18T14:38:30.427Z,86.57
2022-10-18T14:41:15.570Z,86.65
2022-10-18T14:43:43.899Z,87.03
2022-10-18T14:46:16.355Z,87.04
2022-10-18T14:48:58.403Z,86.96
2022-10-18T14:51:27.417Z,87.43
2022-10-18T14:53:55.070Z,87.19
2022-10-18T14:56:32.970Z,86.62
2022-10-18T14:59:05.416Z,86.90
2022-10-18T15:01:32.934Z,87.10
2022-10-18T15:04:02.414Z,87.21
2022-10-18T15:06:29.666Z,86.62
2022-10-18T15:08:58.134Z,86.89
2022-10-18T15:11:26.497Z,86.81
2022-10-18T15:13:55.878Z,86.98
2022-10-18T15:16:28.288Z,86.98
2022-10-18T15:19:07.069Z,86.74
2022-10-18T15:21:36.114Z,86.90
2022-10-18T15:24:19.692Z,86.57
2022-10-18T15:26:47.705Z,86.26
2022-10-18T15:29:21.997Z,86.38
2022-10-18T15:31:49.792Z,86.54
2022-10-18T15:34:20.788Z,86.56
2022-10-18T15:36:49.443Z,86.85
2022-10-18T15:39:24.940Z,86.67
2022-10-18T15:41:56.265Z,86.50
2022-10-18T15:44:25.229Z,85.96
2022-10-18T15:46:55.426Z,85.95
2022-10-18T15:49:25.155Z,86.15
2022-10-18T15:52:32.568Z,86.27
2022-10-18T15:55:31.109Z,86.18
2022-10-18T15:58:15.023Z,85.65
2022-10-18T16:00:43.958Z,86.29
2022-10-18T16:03:11.310Z,85.70
2022-10-18T16:05:39.086Z,86.31
2022-10-18T16:08:06.402Z,86.20
2022-10-18T16:10:33.560Z,86.20
2022-10-18T16:13:00.689Z,85.91
2022-10-18T16:15:27.797Z,86.14
2022-10-18T16:17:54.899Z,86.03
2022-10-18T16:20:24.628Z,86.03
2022-10-18T16:22:51.812Z,86.09
2022-10-18T16:25:18.998Z,86.21
2022-10-18T16:27:46.133Z,85.80
2022-10-18T16:30:15.402Z,85.97
2022-10-18T16:32:42.578Z,86.15
2022-10-18T16:35:12.085Z,85.93
2022-10-18T16:37:39.898Z,85.73
2022-10-18T16:40:34.621Z,86.04
2022-10-18T16:43:04.071Z,85.77
2022-10-18T16:45:31.335Z,85.78
2022-10-18T16:47:58.470Z,86.14
2022-10-18T16:50:25.602Z,86.07
2022-10-18T16:52:52.740Z,86.30
2022-10-18T16:55:24.996Z,86.27
2022-10-18T16:57:52.262Z,86.17
2022-10-18T17:00:22.121Z,86.48
2022-10-18T17:02:49.953Z,86.65
2022-10-18T17:05:18.205Z,86.95
2022-10-18T17:07:45.782Z,86.96
2022-10-18T17:10:17.706Z,86.74
2022-10-18T17:12:45.101Z,86.75
2022-10-18T17:15:12.829Z,86.83
2022-10-18T17:17:39.971Z,86.96
2022-10-18T17:20:08.156Z,87.14
2022-10-18T17:22:35.339Z,87.32
2022-10-18T17:25:02.458Z,87.12
2022-10-18T17:27:29.711Z,87.28
2022-10-18T17:29:57.646Z,87.36
2022-10-18T17:32:24.838Z,87.44
2022-10-18T17:34:52.055Z,87.28
2022-10-18T17:37:19.177Z,87.15
2022-10-18T17:39:46.404Z,87.09
2022-10-18T17:42:13.582Z,86.93
2022-10-18T17:44:40.803Z,87.36
2022-10-18T17:47:08.763Z,87.35
2022-10-18T17:49:35.939Z,87.21
2022-10-18T17:52:06.890Z,87.49
2022-10-18T17:54:34.341Z,87.63
2022-10-18T17:57:01.509Z,87.84
2022-10-18T17:59:29.011Z,87.52
2022-10-18T18:01:56.135Z,87.61
2022-10-18T18:04:24.541Z,87.92
2022-10-18T18:06:52.970Z,87.99
2022-10-18T18:09:21.170Z,87.93
2022-10-18T18:11:49.385Z,88.34
2022-10-18T18:14:16.618Z,88.23
2022-10-18T18:16:45.920Z,88.31
2022-10-18T18:19:13.913Z,88.16
2022-10-18T18:21:41.734Z,87.96
2022-10-18T18:24:10.235Z,88.06
2022-10-18T18:26:38.832Z,88.28
2022-10-18T18:29:06.133Z,88.40
2022-10-18T18:31:38.795Z,88.37
2022-10-18T18:34:10.008Z,88.45
2022-10-18T18:36:37.635Z,88.21
2022-10-18T18:39:05.769Z,88.54
2022-10-18T18:41:33.167Z,88.40
2022-10-18T18:44:05.132Z,88.25
2022-10-18T18:46:37.331Z,88.04
2022-10-18T18:49:06.181Z,88.20
2022-10-18T18:51:33.530Z,88.19
2022-10-18T18:54:00.822Z,88.07
2022-10-18T18:56:29.101Z,88.20
2022-10-18T18:58:58.729Z,87.89
2022-10-18T19:01:36.557Z,88.10
2022-10-18T19:04:05.086Z,88.04
2022-10-18T19:06:41.478Z,87.94
2022-10-18T19:09:21.939Z,88.08
2022-10-18T19:11:52.597Z,88.12
2022-10-18T19:16:59.025Z,88.26
2022-10-18T19:19:27.918Z,88.28
2022-10-18T19:22:03.683Z,88.38
2022-10-18T19:24:31.279Z,88.33
2022-10-18T19:27:04.111Z,88.56
2022-10-18T19:29:33.690Z,88.64
2022-10-18T19:32:04.007Z,88.38
2022-10-18T19:34:32.158Z,88.26
2022-10-18T19:36:59.319Z,88.20
2022-10-18T19:39:29.534Z,88.36
2022-10-18T19:41:58.475Z,87.95
2022-10-18T19:44:28.352Z,87.89
2022-10-18T19:46:55.799Z,87.81
2022-10-18T19:49:23.107Z,87.75
2022-10-18T19:51:50.224Z,87.96
2022-10-18T19:54:17.639Z,87.84
2022-10-18T19:56:44.844Z,87.95
2022-10-18T19:59:13.412Z,87.83
2022-10-18T20:01:41.034Z,87.60
2022-10-18T20:04:08.926Z,87.59
2022-10-18T20:06:37.171Z,87.32
2022-10-18T20:09:06.009Z,87.67
2022-10-18T20:11:33.598Z,87.35
2022-10-18T20:14:00.904Z,87.63
2022-10-18T20:16:30.467Z,87.83
2022-10-18T20:18:59.378Z,87.35
2022-10-18T20:21:27.616Z,87.03
2022-10-18T20:23:55.083Z,87.02
2022-10-18T20:26:22.704Z,86.77
2022-10-18T20:28:57.389Z,86.75
2022-10-18T20:31:27.217Z,86.71
2022-10-18T20:33:56.699Z,86.81
2022-10-18T20:36:24.126Z,86.47
2022-10-18T20:38:51.311Z,86.49
2022-10-18T20:41:24.808Z,86.40
2022-10-18T20:43:56.928Z,86.00
2022-10-18T20:46:24.685Z,86.15
2022-10-18T20:48:52.420Z,85.79
2022-10-18T20:51:20.522Z,86.22
2022-10-18T20:53:47.721Z,86.01
2022-10-18T20:56:22.717Z,86.20
2022-10-18T20:58:51.624Z,86.34
2022-10-18T21:01:30.295Z,85.90
2022-10-18T21:04:05.524Z,86.25
2022-10-18T21:06:43.199Z,86.28
2022-10-18T21:09:15.980Z,86.33
2022-10-18T21:11:45.811Z,85.97
2022-10-18T21:14:15.303Z,85.77
2022-10-18T21:16:43.753Z,85.72
2022-10-18T21:19:17.412Z,85.57
2022-10-18T21:21:47.157Z,85.51
2022-10-18T21:24:14.726Z,85.58
2022-10-18T21:26:41.887Z,86.14
2022-10-18T21:29:11.022Z,85.83
2022-10-18T21:31:40.210Z,85.75
2022-10-18T21:34:12.891Z,86.07
2022-10-18T21:36:41.067Z,86.12
2022-10-18T21:39:11.230Z,86.15
2022-10-18T21:41:38.330Z,85.89
2022-10-18T21:44:08.391Z,85.94
2022-10-18T21:46:39.419Z,86.09
2022-10-18T21:49:07.306Z,86.46
2022-10-18T21:51:34.674Z,86.58
2022-10-18T21:54:01.997Z,86.19
2022-10-18T21:56:31.846Z,86.00
2022-10-18T21:58:59.420Z,86.32
2022-10-18T22:01:37.104Z,85.95
2022-10-18T22:04:06.834Z,86.43
2022-10-18T22:09:06.249Z,86.53
2022-10-18T22:11:36.390Z,86.53
2022-10-18T22:14:03.745Z,86.47
2022-10-18T22:16:30.838Z,86.60
2022-10-18T22:18:59.763Z,87.01
2022-10-18T22:21:27.777Z,87.36
2022-10-18T22:23:59.332Z,87.33
2022-10-18T22:26:32.567Z,87.23
2022-10-18T22:29:08.628Z,87.63
2022-10-18T22:31:37.311Z,87.89
2022-10-18T22:34:11.072Z,87.82
2022-10-18T22:36:38.592Z,88.20
2022-10-18T22:39:06.779Z,88.59
2022-10-18T22:41:34.847Z,88.88
2022-10-18T22:44:03.671Z,88.79
2022-10-18T22:46:32.680Z,88.69
2022-10-18T22:49:00.410Z,88.49
2022-10-18T22:51:27.605Z,88.18
2022-10-18T22:53:54.803Z,88.12
2022-10-18T22:56:22.830Z,87.82
2022-10-18T22:58:50.576Z,87.86
2022-10-18T23:01:20.332Z,87.97
2022-10-18T23:03:52.411Z,87.69
2022-10-18T23:06:34.286Z,87.54
2022-10-18T23:09:06.034Z,87.30
2022-10-18T23:11:34.102Z,86.45
2022-10-18T23:14:03.785Z,86.53
2022-10-18T23:16:31.376Z,86.33
2022-10-18T23:18:59.332Z,86.07
2022-10-18T23:21:28.102Z,85.99
2022-10-18T23:23:55.933Z,85.75
2022-10-18T23:26:25.192Z,85.52
2022-10-18T23:28:53.156Z,85.77
2022-10-18T23:31:29.527Z,85.71
2022-10-18T23:33:59.069Z,85.18
2022-10-18T23:36:27.006Z,85.40
2022-10-18T23:38:54.505Z,85.09
2022-10-18T23:41:21.923Z,84.66
2022-10-18T23:43:49.123Z,85.24
2022-10-18T23:46:17.289Z,85.40
2022-10-18T23:48:44.958Z,85.37
2022-10-18T23:51:12.183Z,85.33
2022-10-18T23:53:39.751Z,84.98
2022-10-18T23:56:09.634Z,85.18
2022-10-18T23:58:37.331Z,85.06
